Maywood, Indiana
Current Conditions -  °F | °C
As of 12:54 AM on Wednesday 22 Oct 2014 (Local Time) from KIND Reporting Station
Few Clouds Few Clouds  
Wind Chill: 42°   Ceiling: Unl
Heat Index: 47°   Visibility: 10mi
Dew Point: 37°   Wind: 12mph
Humidity: 68%   Direction: 50°NE
Pressure: 30.2"   Gusts: NA
Location:  39.7251°N, 86.264°W
Report Text: KIND 220454Z 05010KT 10SM FEW039 08/03 A3020 RMK AO2 SLP227 T00830028 401390067
Loading
Personal Weather Stations






























Interactive Weather Map
Tropical Storm Tracking
New forecast layout! Learn more

10-Day Weather Forecast

Advertisements
Track Severe Weather on mobile